sensor_id;sensor_type;location;lat;lon;timestamp;temperature;humidity
67586;SHT31;55785;47.946;20.540;2023-07-31T09:21:23;24.01;70.13
67586;SHT31;55785;47.946;20.540;2023-07-31T09:23:49;23.98;68.17
67586;SHT31;55785;47.946;20.540;2023-07-31T09:26:35;24.19;68.50
67586;SHT31;55785;47.946;20.540;2023-07-31T09:29:04;24.46;69.66
67586;SHT31;55785;47.946;20.540;2023-07-31T09:31:34;24.56;66.58
67586;SHT31;55785;47.946;20.540;2023-07-31T09:34:03;24.53;66.50
67586;SHT31;55785;47.946;20.540;2023-07-31T09:36:31;24.42;67.77
67586;SHT31;55785;47.946;20.540;2023-07-31T09:39:02;24.43;65.44
67586;SHT31;55785;47.946;20.540;2023-07-31T09:41:27;24.46;65.05
67586;SHT31;55785;47.946;20.540;2023-07-31T09:43:54;24.49;64.93
67586;SHT31;55785;47.946;20.540;2023-07-31T09:46:21;24.42;65.88
67586;SHT31;55785;47.946;20.540;2023-07-31T09:48:46;24.43;65.66
67586;SHT31;55785;47.946;20.540;2023-07-31T09:51:12;24.30;67.66
67586;SHT31;55785;47.946;20.540;2023-07-31T09:53:37;24.36;65.54
67586;SHT31;55785;47.946;20.540;2023-07-31T09:56:03;24.46;66.40
67586;SHT31;55785;47.946;20.540;2023-07-31T09:58:29;24.74;67.54
67586;SHT31;55785;47.946;20.540;2023-07-31T10:00:55;25.00;65.80
67586;SHT31;55785;47.946;20.540;2023-07-31T10:03:22;25.03;63.60
67586;SHT31;55785;47.946;20.540;2023-07-31T10:05:50;24.94;66.78
67586;SHT31;55785;47.946;20.540;2023-07-31T10:08:18;24.97;64.44
67586;SHT31;55785;47.946;20.540;2023-07-31T10:10:44;25.00;64.15
67586;SHT31;55785;47.946;20.540;2023-07-31T10:13:11;25.06;66.91
67586;SHT31;55785;47.946;20.540;2023-07-31T10:15:37;25.17;66.77
67586;SHT31;55785;47.946;20.540;2023-07-31T10:18:05;25.15;66.35
67586;SHT31;55785;47.946;20.540;2023-07-31T10:20:31;25.37;64.64
67586;SHT31;55785;47.946;20.540;2023-07-31T10:22:57;25.76;61.79
67586;SHT31;55785;47.946;20.540;2023-07-31T10:25:23;26.12;61.76
67586;SHT31;55785;47.946;20.540;2023-07-31T10:27:50;26.33;64.07
67586;SHT31;55785;47.946;20.540;2023-07-31T10:30:17;26.03;60.82
67586;SHT31;55785;47.946;20.540;2023-07-31T10:32:44;25.61;61.56
67586;SHT31;55785;47.946;20.540;2023-07-31T10:35:11;25.35;64.01
67586;SHT31;55785;47.946;20.540;2023-07-31T10:37:38;25.15;64.41
67586;SHT31;55785;47.946;20.540;2023-07-31T10:40:15;25.03;64.93
67586;SHT31;55785;47.946;20.540;2023-07-31T10:42:55;24.84;66.34
67586;SHT31;55785;47.946;20.540;2023-07-31T10:45:30;24.79;66.67
67586;SHT31;55785;47.946;20.540;2023-07-31T10:48:15;24.79;65.56
67586;SHT31;55785;47.946;20.540;2023-07-31T10:50:52;24.86;65.67
67586;SHT31;55785;47.946;20.540;2023-07-31T10:53:29;24.97;64.87
67586;SHT31;55785;47.946;20.540;2023-07-31T10:55:58;25.30;65.42
67586;SHT31;55785;47.946;20.540;2023-07-31T10:58:24;25.59;60.67
67586;SHT31;55785;47.946;20.540;2023-07-31T11:00:49;25.75;60.60
67586;SHT31;55785;47.946;20.540;2023-07-31T11:03:18;25.97;62.06
67586;SHT31;55785;47.946;20.540;2023-07-31T11:10:48;26.38;61.49
67586;SHT31;55785;47.946;20.540;2023-07-31T11:13:13;26.61;57.63
67586;SHT31;55785;47.946;20.540;2023-07-31T11:15:39;26.54;61.21
67586;SHT31;55785;47.946;20.540;2023-07-31T11:18:05;26.62;59.13
67586;SHT31;55785;47.946;20.540;2023-07-31T11:20:31;26.71;58.95
67586;SHT31;55785;47.946;20.540;2023-07-31T11:23:04;26.44;57.58
67586;SHT31;55785;47.946;20.540;2023-07-31T11:25:31;26.49;62.16
67586;SHT31;55785;47.946;20.540;2023-07-31T11:27:57;26.72;61.53
67586;SHT31;55785;47.946;20.540;2023-07-31T11:30:23;26.91;59.85
67586;SHT31;55785;47.946;20.540;2023-07-31T11:32:49;26.89;58.70
67586;SHT31;55785;47.946;20.540;2023-07-31T11:35:14;27.06;58.26
67586;SHT31;55785;47.946;20.540;2023-07-31T11:37:43;27.05;56.25
67586;SHT31;55785;47.946;20.540;2023-07-31T11:40:09;27.26;62.37
67586;SHT31;55785;47.946;20.540;2023-07-31T11:42:35;27.42;57.99
67586;SHT31;55785;47.946;20.540;2023-07-31T11:45:05;27.60;55.38
67586;SHT31;55785;47.946;20.540;2023-07-31T11:47:34;27.76;54.94
67586;SHT31;55785;47.946;20.540;2023-07-31T11:50:00;27.99;57.64
67586;SHT31;55785;47.946;20.540;2023-07-31T11:52:26;27.99;55.75
67586;SHT31;55785;47.946;20.540;2023-07-31T11:54:51;27.67;56.08
67586;SHT31;55785;47.946;20.540;2023-07-31T11:57:18;27.88;58.17
67586;SHT31;55785;47.946;20.540;2023-07-31T11:59:44;27.98;55.40
67586;SHT31;55785;47.946;20.540;2023-07-31T12:02:09;28.11;52.76
67586;SHT31;55785;47.946;20.540;2023-07-31T12:04:35;28.43;56.55
67586;SHT31;55785;47.946;20.540;2023-07-31T12:07:01;28.52;52.89
67586;SHT31;55785;47.946;20.540;2023-07-31T12:09:26;28.61;54.89
67586;SHT31;55785;47.946;20.540;2023-07-31T12:11:51;28.64;55.53
67586;SHT31;55785;47.946;20.540;2023-07-31T12:16:46;28.46;53.99
67586;SHT31;55785;47.946;20.540;2023-07-31T12:19:11;28.52;52.52
67586;SHT31;55785;47.946;20.540;2023-07-31T12:21:37;28.60;54.51
67586;SHT31;55785;47.946;20.540;2023-07-31T12:24:03;28.90;55.74
67586;SHT31;55785;47.946;20.540;2023-07-31T12:26:34;29.11;55.29
67586;SHT31;55785;47.946;20.540;2023-07-31T12:28:59;29.36;52.64
67586;SHT31;55785;47.946;20.540;2023-07-31T12:31:27;29.42;49.92
67586;SHT31;55785;47.946;20.540;2023-07-31T12:33:53;29.10;49.65
67586;SHT31;55785;47.946;20.540;2023-07-31T12:36:22;29.25;50.21
67586;SHT31;55785;47.946;20.540;2023-07-31T12:38:47;28.81;51.44
67586;SHT31;55785;47.946;20.540;2023-07-31T12:41:13;29.03;50.82
67586;SHT31;55785;47.946;20.540;2023-07-31T12:43:40;29.03;49.68
67586;SHT31;55785;47.946;20.540;2023-07-31T12:46:07;29.17;48.09
67586;SHT31;55785;47.946;20.540;2023-07-31T12:48:32;29.06;48.14
67586;SHT31;55785;47.946;20.540;2023-07-31T12:50:57;29.15;50.77
67586;SHT31;55785;47.946;20.540;2023-07-31T12:53:23;29.28;49.93
67586;SHT31;55785;47.946;20.540;2023-07-31T12:55:49;28.59;49.35
67586;SHT31;55785;47.946;20.540;2023-07-31T12:58:14;28.56;50.95
67586;SHT31;55785;47.946;20.540;2023-07-31T13:00:39;28.71;52.09
67586;SHT31;55785;47.946;20.540;2023-07-31T13:03:05;28.63;50.32
67586;SHT31;55785;47.946;20.540;2023-07-31T13:05:30;28.74;49.77
67586;SHT31;55785;47.946;20.540;2023-07-31T13:07:56;28.64;48.03
67586;SHT31;55785;47.946;20.540;2023-07-31T13:10:22;28.91;48.83
67586;SHT31;55785;47.946;20.540;2023-07-31T13:12:48;28.81;48.78
67586;SHT31;55785;47.946;20.540;2023-07-31T13:15:13;28.80;47.35
67586;SHT31;55785;47.946;20.540;2023-07-31T13:17:39;28.91;47.55
67586;SHT31;55785;47.946;20.540;2023-07-31T13:20:04;29.28;48.24
67586;SHT31;55785;47.946;20.540;2023-07-31T13:22:30;29.42;48.91
67586;SHT31;55785;47.946;20.540;2023-07-31T13:24:55;29.48;46.79
67586;SHT31;55785;47.946;20.540;2023-07-31T13:27:21;29.34;45.94
67586;SHT31;55785;47.946;20.540;2023-07-31T13:29:50;28.91;46.62
67586;SHT31;55785;47.946;20.540;2023-07-31T13:32:16;28.39;48.98
67586;SHT31;55785;47.946;20.540;2023-07-31T13:34:42;28.35;49.78
67586;SHT31;55785;47.946;20.540;2023-07-31T13:37:07;28.23;49.17
67586;SHT31;55785;47.946;20.540;2023-07-31T13:39:33;28.29;48.80
67586;SHT31;55785;47.946;20.540;2023-07-31T13:41:58;28.19;48.72
67586;SHT31;55785;47.946;20.540;2023-07-31T13:44:24;28.06;49.01
67586;SHT31;55785;47.946;20.540;2023-07-31T13:46:49;28.38;50.51
67586;SHT31;55785;47.946;20.540;2023-07-31T13:49:14;28.64;47.75
67586;SHT31;55785;47.946;20.540;2023-07-31T13:51:40;28.94;47.21
67586;SHT31;55785;47.946;20.540;2023-07-31T13:54:05;28.88;47.59
67586;SHT31;55785;47.946;20.540;2023-07-31T13:56:30;28.35;46.05
67586;SHT31;55785;47.946;20.540;2023-07-31T13:58:56;28.11;50.82
67586;SHT31;55785;47.946;20.540;2023-07-31T14:01:21;27.65;51.73
67586;SHT31;55785;47.946;20.540;2023-07-31T14:03:46;27.63;51.24
67586;SHT31;55785;47.946;20.540;2023-07-31T14:06:12;27.78;50.29
67586;SHT31;55785;47.946;20.540;2023-07-31T14:08:37;28.22;50.71
67586;SHT31;55785;47.946;20.540;2023-07-31T14:11:02;28.67;47.92
67586;SHT31;55785;47.946;20.540;2023-07-31T14:13:28;28.96;46.98
67586;SHT31;55785;47.946;20.540;2023-07-31T14:15:53;29.11;48.35
67586;SHT31;55785;47.946;20.540;2023-07-31T14:18:19;29.08;45.41
67586;SHT31;55785;47.946;20.540;2023-07-31T14:20:44;29.15;45.39
67586;SHT31;55785;47.946;20.540;2023-07-31T14:23:09;29.28;45.17
67586;SHT31;55785;47.946;20.540;2023-07-31T14:25:35;29.19;43.88
67586;SHT31;55785;47.946;20.540;2023-07-31T14:28:00;29.19;43.53
67586;SHT31;55785;47.946;20.540;2023-07-31T14:30:25;29.15;43.52
67586;SHT31;55785;47.946;20.540;2023-07-31T14:32:51;29.17;42.76
67586;SHT31;55785;47.946;20.540;2023-07-31T14:35:16;29.25;45.38
67586;SHT31;55785;47.946;20.540;2023-07-31T14:37:43;29.19;44.83
67586;SHT31;55785;47.946;20.540;2023-07-31T14:40:10;29.11;44.95
67586;SHT31;55785;47.946;20.540;2023-07-31T14:42:37;29.17;43.38
67586;SHT31;55785;47.946;20.540;2023-07-31T14:45:06;29.08;43.37
67586;SHT31;55785;47.946;20.540;2023-07-31T14:47:32;28.96;43.55
67586;SHT31;55785;47.946;20.540;2023-07-31T14:49:59;29.10;44.02
67586;SHT31;55785;47.946;20.540;2023-07-31T14:52:25;29.24;43.77
67586;SHT31;55785;47.946;20.540;2023-07-31T14:54:50;29.32;44.47
67586;SHT31;55785;47.946;20.540;2023-07-31T14:57:16;29.44;44.28
67586;SHT31;55785;47.946;20.540;2023-07-31T14:59:41;29.36;42.86
67586;SHT31;55785;47.946;20.540;2023-07-31T15:02:10;29.29;43.68
67586;SHT31;55785;47.946;20.540;2023-07-31T15:04:36;29.15;44.55
67586;SHT31;55785;47.946;20.540;2023-07-31T15:07:01;28.81;43.66
67586;SHT31;55785;47.946;20.540;2023-07-31T15:09:27;28.70;44.41
67586;SHT31;55785;47.946;20.540;2023-07-31T15:11:52;28.35;46.52
67586;SHT31;55785;47.946;20.540;2023-07-31T15:14:18;28.40;45.30
67586;SHT31;55785;47.946;20.540;2023-07-31T15:16:43;28.46;45.54
67586;SHT31;55785;47.946;20.540;2023-07-31T15:19:09;28.45;44.58
67586;SHT31;55785;47.946;20.540;2023-07-31T15:21:34;28.32;44.78
67586;SHT31;55785;47.946;20.540;2023-07-31T15:23:59;28.46;44.88
67586;SHT31;55785;47.946;20.540;2023-07-31T15:26:25;28.29;44.49
67586;SHT31;55785;47.946;20.540;2023-07-31T15:29:00;28.18;45.86
67586;SHT31;55785;47.946;20.540;2023-07-31T15:31:26;28.19;46.61
67586;SHT31;55785;47.946;20.540;2023-07-31T15:33:51;28.22;46.79
67586;SHT31;55785;47.946;20.540;2023-07-31T15:36:16;28.19;46.65
67586;SHT31;55785;47.946;20.540;2023-07-31T15:38:42;28.20;45.95
67586;SHT31;55785;47.946;20.540;2023-07-31T15:41:07;28.23;46.74
67586;SHT31;55785;47.946;20.540;2023-07-31T15:43:33;28.23;46.08
67586;SHT31;55785;47.946;20.540;2023-07-31T15:45:58;27.74;46.10
67586;SHT31;55785;47.946;20.540;2023-07-31T15:48:23;27.72;46.84
67586;SHT31;55785;47.946;20.540;2023-07-31T15:50:49;27.65;45.69
67586;SHT31;55785;47.946;20.540;2023-07-31T15:53:14;27.70;47.35
67586;SHT31;55785;47.946;20.540;2023-07-31T15:55:39;27.64;46.98
67586;SHT31;55785;47.946;20.540;2023-07-31T15:58:05;27.30;47.32
67586;SHT31;55785;47.946;20.540;2023-07-31T16:00:30;27.16;47.30
67586;SHT31;55785;47.946;20.540;2023-07-31T16:02:55;27.10;47.48
67586;SHT31;55785;47.946;20.540;2023-07-31T16:05:21;27.05;48.00
67586;SHT31;55785;47.946;20.540;2023-07-31T16:07:46;26.79;48.73
67586;SHT31;55785;47.946;20.540;2023-07-31T16:10:11;26.58;49.65
67586;SHT31;55785;47.946;20.540;2023-07-31T16:12:37;26.44;50.46
67586;SHT31;55785;47.946;20.540;2023-07-31T16:15:03;26.16;50.93
67586;SHT31;55785;47.946;20.540;2023-07-31T16:17:28;26.00;51.24
67586;SHT31;55785;47.946;20.540;2023-07-31T16:19:53;25.86;51.97
67586;SHT31;55785;47.946;20.540;2023-07-31T16:22:19;25.70;52.06
67586;SHT31;55785;47.946;20.540;2023-07-31T16:24:44;25.55;52.18
67586;SHT31;55785;47.946;20.540;2023-07-31T16:27:09;25.43;52.89
67586;SHT31;55785;47.946;20.540;2023-07-31T16:29:35;25.37;55.80
67586;SHT31;55785;47.946;20.540;2023-07-31T16:32:00;25.25;54.33
67586;SHT31;55785;47.946;20.540;2023-07-31T16:34:25;25.21;54.69
67586;SHT31;55785;47.946;20.540;2023-07-31T16:36:51;25.17;55.83
67586;SHT31;55785;47.946;20.540;2023-07-31T16:39:16;25.07;56.22
67586;SHT31;55785;47.946;20.540;2023-07-31T16:41:41;24.97;57.81
67586;SHT31;55785;47.946;20.540;2023-07-31T16:44:07;24.87;58.02
67586;SHT31;55785;47.946;20.540;2023-07-31T16:46:32;24.77;59.06
67586;SHT31;55785;47.946;20.540;2023-07-31T16:48:58;24.73;58.51
67586;SHT31;55785;47.946;20.540;2023-07-31T16:51:23;24.62;58.48
67586;SHT31;55785;47.946;20.540;2023-07-31T16:53:48;24.52;60.05
67586;SHT31;55785;47.946;20.540;2023-07-31T16:56:14;24.40;61.04
67586;SHT31;55785;47.946;20.540;2023-07-31T16:58:40;24.35;62.68
67586;SHT31;55785;47.946;20.540;2023-07-31T17:01:05;24.33;61.13
67586;SHT31;55785;47.946;20.540;2023-07-31T17:03:30;24.33;59.87
67586;SHT31;55785;47.946;20.540;2023-07-31T17:05:56;24.33;61.99
67586;SHT31;55785;47.946;20.540;2023-07-31T17:08:21;24.28;61.57
67586;SHT31;55785;47.946;20.540;2023-07-31T17:10:46;24.22;60.57
67586;SHT31;55785;47.946;20.540;2023-07-31T17:13:12;24.22;60.74
67586;SHT31;55785;47.946;20.540;2023-07-31T17:15:37;24.19;60.60
67586;SHT31;55785;47.946;20.540;2023-07-31T17:18:02;24.15;62.13
67586;SHT31;55785;47.946;20.540;2023-07-31T17:20:28;24.04;65.98
67586;SHT31;55785;47.946;20.540;2023-07-31T17:22:54;23.88;65.78
67586;SHT31;55785;47.946;20.540;2023-07-31T17:25:19;23.79;67.13
67586;SHT31;55785;47.946;20.540;2023-07-31T17:27:44;23.71;67.55
67586;SHT31;55785;47.946;20.540;2023-07-31T17:30:10;23.63;67.85
67586;SHT31;55785;47.946;20.540;2023-07-31T17:32:36;23.54;66.85
67586;SHT31;55785;47.946;20.540;2023-07-31T17:35:01;23.45;65.92
67586;SHT31;55785;47.946;20.540;2023-07-31T17:37:27;23.34;65.90
67586;SHT31;55785;47.946;20.540;2023-07-31T17:39:52;23.24;65.62
67586;SHT31;55785;47.946;20.540;2023-07-31T17:42:17;23.15;64.64
67586;SHT31;55785;47.946;20.540;2023-07-31T17:44:43;23.12;64.39
67586;SHT31;55785;47.946;20.540;2023-07-31T17:47:08;23.06;64.24
67586;SHT31;55785;47.946;20.540;2023-07-31T17:49:33;23.05;64.52
67586;SHT31;55785;47.946;20.540;2023-07-31T17:51:59;22.99;63.87
67586;SHT31;55785;47.946;20.540;2023-07-31T17:54:24;22.95;64.40
67586;SHT31;55785;47.946;20.540;2023-07-31T17:56:50;22.81;64.82
67586;SHT31;55785;47.946;20.540;2023-07-31T17:59:15;22.71;64.88
67586;SHT31;55785;47.946;20.540;2023-07-31T18:01:40;22.61;64.90
67586;SHT31;55785;47.946;20.540;2023-07-31T18:04:06;22.57;64.89
67586;SHT31;55785;47.946;20.540;2023-07-31T18:06:31;22.43;65.51
67586;SHT31;55785;47.946;20.540;2023-07-31T18:08:56;22.36;65.64
67586;SHT31;55785;47.946;20.540;2023-07-31T18:11:22;22.24;65.64
67586;SHT31;55785;47.946;20.540;2023-07-31T18:13:47;22.17;65.94
67586;SHT31;55785;47.946;20.540;2023-07-31T18:16:12;22.13;65.26
67586;SHT31;55785;47.946;20.540;2023-07-31T18:18:38;22.12;65.38
67586;SHT31;55785;47.946;20.540;2023-07-31T18:21:03;22.10;66.36
67586;SHT31;55785;47.946;20.540;2023-07-31T18:23:28;22.03;66.88
67586;SHT31;55785;47.946;20.540;2023-07-31T18:25:54;21.97;66.79
67586;SHT31;55785;47.946;20.540;2023-07-31T18:28:19;21.90;67.01
67586;SHT31;55785;47.946;20.540;2023-07-31T18:30:44;21.82;67.48
67586;SHT31;55785;47.946;20.540;2023-07-31T18:33:10;21.71;68.35
67586;SHT31;55785;47.946;20.540;2023-07-31T18:35:38;21.66;68.78
67586;SHT31;55785;47.946;20.540;2023-07-31T18:38:03;21.61;68.99
67586;SHT31;55785;47.946;20.540;2023-07-31T18:40:29;21.54;69.41
67586;SHT31;55785;47.946;20.540;2023-07-31T18:42:54;21.42;69.76
67586;SHT31;55785;47.946;20.540;2023-07-31T18:45:20;21.31;70.31
67586;SHT31;55785;47.946;20.540;2023-07-31T18:47:45;21.24;71.02
67586;SHT31;55785;47.946;20.540;2023-07-31T18:50:10;21.15;71.46
67586;SHT31;55785;47.946;20.540;2023-07-31T18:52:36;21.06;71.30
67586;SHT31;55785;47.946;20.540;2023-07-31T18:55:01;20.97;72.89
67586;SHT31;55785;47.946;20.540;2023-07-31T18:57:26;20.76;74.01
67586;SHT31;55785;47.946;20.540;2023-07-31T18:59:52;20.46;74.06
67586;SHT31;55785;47.946;20.540;2023-07-31T19:02:17;20.26;74.24
67586;SHT31;55785;47.946;20.540;2023-07-31T19:04:42;20.19;74.61
67586;SHT31;55785;47.946;20.540;2023-07-31T19:07:08;20.17;74.08
67586;SHT31;55785;47.946;20.540;2023-07-31T19:09:34;20.17;74.67
67586;SHT31;55785;47.946;20.540;2023-07-31T19:11:59;20.08;75.04
67586;SHT31;55785;47.946;20.540;2023-07-31T19:14:25;20.00;75.14
67586;SHT31;55785;47.946;20.540;2023-07-31T19:16:50;19.95;75.15
67586;SHT31;55785;47.946;20.540;2023-07-31T19:19:16;19.85;75.05
67586;SHT31;55785;47.946;20.540;2023-07-31T19:21:41;19.85;75.33
67586;SHT31;55785;47.946;20.540;2023-07-31T19:24:07;19.78;75.86
67586;SHT31;55785;47.946;20.540;2023-07-31T19:26:32;19.74;75.93
67586;SHT31;55785;47.946;20.540;2023-07-31T19:28:58;19.75;75.67
67586;SHT31;55785;47.946;20.540;2023-07-31T19:31:23;19.85;75.17
67586;SHT31;55785;47.946;20.540;2023-07-31T19:33:48;19.92;74.54
67586;SHT31;55785;47.946;20.540;2023-07-31T19:36:14;19.94;74.67
67586;SHT31;55785;47.946;20.540;2023-07-31T19:38:39;19.91;73.97
67586;SHT31;55785;47.946;20.540;2023-07-31T19:41:04;19.97;74.18
67586;SHT31;55785;47.946;20.540;2023-07-31T19:43:30;20.02;73.56
67586;SHT31;55785;47.946;20.540;2023-07-31T19:45:55;20.07;72.81
67586;SHT31;55785;47.946;20.540;2023-07-31T19:48:22;20.12;72.58
67586;SHT31;55785;47.946;20.540;2023-07-31T19:50:48;20.14;73.07
67586;SHT31;55785;47.946;20.540;2023-07-31T19:53:13;20.04;73.58
67586;SHT31;55785;47.946;20.540;2023-07-31T19:55:38;19.90;73.94
67586;SHT31;55785;47.946;20.540;2023-07-31T19:58:04;19.85;73.78
67586;SHT31;55785;47.946;20.540;2023-07-31T20:00:29;19.82;74.42
67586;SHT31;55785;47.946;20.540;2023-07-31T20:02:54;19.81;74.50
67586;SHT31;55785;47.946;20.540;2023-07-31T20:05:20;19.81;73.88
67586;SHT31;55785;47.946;20.540;2023-07-31T20:07:45;19.81;73.36
67586;SHT31;55785;47.946;20.540;2023-07-31T20:10:10;19.77;73.39
67586;SHT31;55785;47.946;20.540;2023-07-31T20:12:36;19.75;73.80
67586;SHT31;55785;47.946;20.540;2023-07-31T20:15:02;19.66;74.68
67586;SHT31;55785;47.946;20.540;2023-07-31T20:17:28;19.43;75.14
67586;SHT31;55785;47.946;20.540;2023-07-31T20:19:56;19.27;75.94
67586;SHT31;55785;47.946;20.540;2023-07-31T20:22:22;19.02;76.79
67586;SHT31;55785;47.946;20.540;2023-07-31T20:24:47;18.82;76.89
67586;SHT31;55785;47.946;20.540;2023-07-31T20:27:17;18.57;77.41
67586;SHT31;55785;47.946;20.540;2023-07-31T20:29:43;18.34;77.83
67586;SHT31;55785;47.946;20.540;2023-07-31T20:32:08;18.09;79.21
67586;SHT31;55785;47.946;20.540;2023-07-31T20:34:34;17.82;79.99
67586;SHT31;55785;47.946;20.540;2023-07-31T20:36:59;17.55;80.66
67586;SHT31;55785;47.946;20.540;2023-07-31T20:39:25;17.44;81.14
67586;SHT31;55785;47.946;20.540;2023-07-31T20:41:50;17.37;81.81
67586;SHT31;55785;47.946;20.540;2023-07-31T20:44:15;17.35;81.64
67586;SHT31;55785;47.946;20.540;2023-07-31T20:46:41;17.35;82.20
67586;SHT31;55785;47.946;20.540;2023-07-31T20:49:06;17.38;82.46
67586;SHT31;55785;47.946;20.540;2023-07-31T20:51:31;17.48;82.17
67586;SHT31;55785;47.946;20.540;2023-07-31T20:53:57;17.79;81.20
67586;SHT31;55785;47.946;20.540;2023-07-31T21:10:54;17.59;79.82
67586;SHT31;55785;47.946;20.540;2023-07-31T21:35:07;17.23;80.39
67586;SHT31;55785;47.946;20.540;2023-07-31T22:38:03;16.90;80.93
67586;SHT31;55785;47.946;20.540;2023-07-31T22:55:00;16.58;81.93
67586;SHT31;55785;47.946;20.540;2023-07-31T22:57:25;16.59;81.94
67586;SHT31;55785;47.946;20.540;2023-07-31T23:02:19;16.58;82.05
67586;SHT31;55785;47.946;20.540;2023-07-31T23:07:10;16.52;82.13
67586;SHT31;55785;47.946;20.540;2023-07-31T23:09:35;16.51;82.21
67586;SHT31;55785;47.946;20.540;2023-07-31T23:12:00;16.53;82.07
67586;SHT31;55785;47.946;20.540;2023-07-31T23:14:26;16.52;82.15
67586;SHT31;55785;47.946;20.540;2023-07-31T23:16:51;16.44;82.29
67586;SHT31;55785;47.946;20.540;2023-07-31T23:19:16;16.41;82.37
67586;SHT31;55785;47.946;20.540;2023-07-31T23:21:42;16.35;82.50
67586;SHT31;55785;47.946;20.540;2023-07-31T23:24:08;16.29;82.73
67586;SHT31;55785;47.946;20.540;2023-07-31T23:26:33;16.26;82.84
67586;SHT31;55785;47.946;20.540;2023-07-31T23:28:59;16.20;82.93
67586;SHT31;55785;47.946;20.540;2023-07-31T23:31:24;16.18;83.05
67586;SHT31;55785;47.946;20.540;2023-07-31T23:33:49;16.18;83.16
67586;SHT31;55785;47.946;20.540;2023-07-31T23:36:15;16.12;83.19
67586;SHT31;55785;47.946;20.540;2023-07-31T23:38:40;16.10;83.42
67586;SHT31;55785;47.946;20.540;2023-07-31T23:41:06;16.11;83.66
67586;SHT31;55785;47.946;20.540;2023-07-31T23:43:32;16.11;83.64
67586;SHT31;55785;47.946;20.540;2023-07-31T23:45:57;16.18;83.52
67586;SHT31;55785;47.946;20.540;2023-07-31T23:48:22;16.20;83.22
67586;SHT31;55785;47.946;20.540;2023-07-31T23:50:48;16.26;82.90
67586;SHT31;55785;47.946;20.540;2023-07-31T23:53:13;16.31;82.86
67586;SHT31;55785;47.946;20.540;2023-07-31T23:55:39;16.26;83.25
67586;SHT31;55785;47.946;20.540;2023-07-31T23:58:05;16.28;82.94
